Onatchiway, Canada
Current Conditions -  °F | °C
As of 6:00 AM on Wednesday 26 Nov 2014 (Local Time) from CYBG Reporting Station
Few Clouds Few Clouds  
Wind Chill: 13°   Ceiling: Unl
Heat Index: 25°   Visibility: 25mi
Dew Point: 18°   Wind: 13mph
Humidity: 74%   Direction: 270°W
Pressure: 30.15"   Gusts: NA
Location:  48.88°N, 71.02°W
Report Text: CYBG 261100Z 27011KT 25SM FEW030 M04/M08 A3015 RMK SC2 SLP219
Loading
Personal Weather Stations






























Interactive Weather Map New forecast layout! Learn more

10-Day Weather Forecast

Advertisements
Track Severe Weather on mobile